sensor_id;sensor_type;location;lat;lon;timestamp;P1;durP1;ratioP1;P2;durP2;ratioP2
73859;SDS011;62197;51.632;13.700;2023-11-19T00:00:47;5.68;;;3.25;;
73859;SDS011;62197;51.632;13.700;2023-11-19T00:03:12;6.43;;;3.00;;
73859;SDS011;62197;51.632;13.700;2023-11-19T00:05:38;6.60;;;3.70;;
73859;SDS011;62197;51.632;13.700;2023-11-19T00:08:03;8.93;;;3.95;;
73859;SDS011;62197;51.632;13.700;2023-11-19T00:10:30;7.18;;;3.85;;
73859;SDS011;62197;51.632;13.700;2023-11-19T00:12:56;6.13;;;2.38;;
73859;SDS011;62197;51.632;13.700;2023-11-19T00:15:22;6.50;;;3.38;;
73859;SDS011;62197;51.632;13.700;2023-11-19T00:17:49;10.27;;;4.22;;
73859;SDS011;62197;51.632;13.700;2023-11-19T00:20:15;8.73;;;3.72;;
73859;SDS011;62197;51.632;13.700;2023-11-19T00:22:42;5.70;;;3.58;;
73859;SDS011;62197;51.632;13.700;2023-11-19T00:27:34;6.95;;;4.18;;
73859;SDS011;62197;51.632;13.700;2023-11-19T00:29:59;5.75;;;3.25;;
73859;SDS011;62197;51.632;13.700;2023-11-19T00:32:25;7.28;;;4.40;;
73859;SDS011;62197;51.632;13.700;2023-11-19T00:34:50;6.00;;;3.25;;
73859;SDS011;62197;51.632;13.700;2023-11-19T00:37:16;7.28;;;3.67;;
73859;SDS011;62197;51.632;13.700;2023-11-19T00:39:41;7.03;;;3.33;;
73859;SDS011;62197;51.632;13.700;2023-11-19T00:42:08;10.57;;;3.70;;
73859;SDS011;62197;51.632;13.700;2023-11-19T00:44:35;6.20;;;3.63;;
73859;SDS011;62197;51.632;13.700;2023-11-19T00:47:00;5.22;;;3.28;;
73859;SDS011;62197;51.632;13.700;2023-11-19T00:49:25;6.30;;;3.45;;
73859;SDS011;62197;51.632;13.700;2023-11-19T00:51:51;6.63;;;3.42;;
73859;SDS011;62197;51.632;13.700;2023-11-19T00:54:16;5.85;;;3.30;;
73859;SDS011;62197;51.632;13.700;2023-11-19T00:56:42;8.23;;;3.85;;
73859;SDS011;62197;51.632;13.700;2023-11-19T00:59:07;7.10;;;3.42;;
73859;SDS011;62197;51.632;13.700;2023-11-19T01:01:32;6.63;;;2.85;;
73859;SDS011;62197;51.632;13.700;2023-11-19T01:03:58;5.53;;;2.80;;
73859;SDS011;62197;51.632;13.700;2023-11-19T01:06:30;5.40;;;2.97;;
73859;SDS011;62197;51.632;13.700;2023-11-19T01:08:56;7.97;;;3.05;;
73859;SDS011;62197;51.632;13.700;2023-11-19T01:11:24;5.38;;;2.63;;
73859;SDS011;62197;51.632;13.700;2023-11-19T01:13:50;6.85;;;3.60;;
73859;SDS011;62197;51.632;13.700;2023-11-19T01:18:42;4.70;;;2.45;;
73859;SDS011;62197;51.632;13.700;2023-11-19T01:21:07;5.00;;;2.30;;
73859;SDS011;62197;51.632;13.700;2023-11-19T01:23:33;6.07;;;2.67;;
73859;SDS011;62197;51.632;13.700;2023-11-19T01:25:59;5.15;;;3.00;;
73859;SDS011;62197;51.632;13.700;2023-11-19T01:28:24;5.70;;;3.00;;
73859;SDS011;62197;51.632;13.700;2023-11-19T01:30:52;5.25;;;3.00;;
73859;SDS011;62197;51.632;13.700;2023-11-19T01:33:17;6.07;;;3.10;;
73859;SDS011;62197;51.632;13.700;2023-11-19T01:35:43;7.45;;;3.85;;
73859;SDS011;62197;51.632;13.700;2023-11-19T01:38:08;5.78;;;2.70;;
73859;SDS011;62197;51.632;13.700;2023-11-19T01:40:34;7.10;;;3.17;;
73859;SDS011;62197;51.632;13.700;2023-11-19T01:43:01;2.88;;;1.92;;
73859;SDS011;62197;51.632;13.700;2023-11-19T01:45:27;6.25;;;3.08;;
73859;SDS011;62197;51.632;13.700;2023-11-19T01:47:55;7.97;;;3.03;;
73859;SDS011;62197;51.632;13.700;2023-11-19T01:50:21;5.68;;;3.00;;
73859;SDS011;62197;51.632;13.700;2023-11-19T01:52:47;4.72;;;3.17;;
73859;SDS011;62197;51.632;13.700;2023-11-19T01:55:13;7.07;;;3.38;;
73859;SDS011;62197;51.632;13.700;2023-11-19T01:57:39;9.65;;;2.97;;
73859;SDS011;62197;51.632;13.700;2023-11-19T02:00:06;7.20;;;4.05;;
73859;SDS011;62197;51.632;13.700;2023-11-19T02:02:36;5.60;;;2.95;;
73859;SDS011;62197;51.632;13.700;2023-11-19T02:05:01;6.07;;;3.70;;
73859;SDS011;62197;51.632;13.700;2023-11-19T02:07:27;6.88;;;3.53;;
73859;SDS011;62197;51.632;13.700;2023-11-19T02:09:53;10.90;;;3.88;;
73859;SDS011;62197;51.632;13.700;2023-11-19T02:12:18;8.55;;;3.50;;
73859;SDS011;62197;51.632;13.700;2023-11-19T02:14:45;7.15;;;3.90;;
73859;SDS011;62197;51.632;13.700;2023-11-19T02:17:29;7.97;;;4.70;;
73859;SDS011;62197;51.632;13.700;2023-11-19T02:19:59;11.68;;;4.45;;
73859;SDS011;62197;51.632;13.700;2023-11-19T02:22:24;8.95;;;4.53;;
73859;SDS011;62197;51.632;13.700;2023-11-19T02:24:51;8.70;;;4.22;;
73859;SDS011;62197;51.632;13.700;2023-11-19T02:30:15;8.77;;;4.50;;
73859;SDS011;62197;51.632;13.700;2023-11-19T02:32:43;7.78;;;4.18;;
73859;SDS011;62197;51.632;13.700;2023-11-19T02:35:08;10.00;;;5.03;;
73859;SDS011;62197;51.632;13.700;2023-11-19T02:37:34;7.60;;;4.43;;
73859;SDS011;62197;51.632;13.700;2023-11-19T02:39:59;9.35;;;4.75;;
73859;SDS011;62197;51.632;13.700;2023-11-19T02:42:27;8.27;;;4.47;;
73859;SDS011;62197;51.632;13.700;2023-11-19T02:44:53;7.30;;;4.13;;
73859;SDS011;62197;51.632;13.700;2023-11-19T02:47:18;8.45;;;4.65;;
73859;SDS011;62197;51.632;13.700;2023-11-19T02:49:46;8.07;;;4.80;;
73859;SDS011;62197;51.632;13.700;2023-11-19T02:52:12;8.75;;;5.35;;
73859;SDS011;62197;51.632;13.700;2023-11-19T02:54:39;6.90;;;3.67;;
73859;SDS011;62197;51.632;13.700;2023-11-19T02:57:06;11.35;;;4.95;;
73859;SDS011;62197;51.632;13.700;2023-11-19T02:59:33;9.02;;;4.75;;
73859;SDS011;62197;51.632;13.700;2023-11-19T03:02:04;9.05;;;4.55;;
73859;SDS011;62197;51.632;13.700;2023-11-19T03:04:31;8.63;;;5.00;;
73859;SDS011;62197;51.632;13.700;2023-11-19T03:06:57;8.35;;;4.78;;
73859;SDS011;62197;51.632;13.700;2023-11-19T03:09:23;7.68;;;4.15;;
73859;SDS011;62197;51.632;13.700;2023-11-19T03:11:49;7.68;;;4.35;;
73859;SDS011;62197;51.632;13.700;2023-11-19T03:14:14;8.98;;;4.40;;
73859;SDS011;62197;51.632;13.700;2023-11-19T03:16:40;7.18;;;4.60;;
73859;SDS011;62197;51.632;13.700;2023-11-19T03:19:05;7.13;;;4.10;;
73859;SDS011;62197;51.632;13.700;2023-11-19T03:21:30;8.10;;;4.72;;
73859;SDS011;62197;51.632;13.700;2023-11-19T03:23:59;10.05;;;4.75;;
73859;SDS011;62197;51.632;13.700;2023-11-19T03:26:25;8.00;;;4.32;;
73859;SDS011;62197;51.632;13.700;2023-11-19T03:28:52;8.95;;;4.35;;
73859;SDS011;62197;51.632;13.700;2023-11-19T03:31:17;8.75;;;4.50;;
73859;SDS011;62197;51.632;13.700;2023-11-19T03:33:43;7.63;;;3.97;;
73859;SDS011;62197;51.632;13.700;2023-11-19T03:36:08;8.65;;;4.15;;
73859;SDS011;62197;51.632;13.700;2023-11-19T03:38:34;8.07;;;4.13;;
73859;SDS011;62197;51.632;13.700;2023-11-19T03:40:59;6.00;;;3.85;;
73859;SDS011;62197;51.632;13.700;2023-11-19T03:43:25;4.97;;;3.30;;
73859;SDS011;62197;51.632;13.700;2023-11-19T03:45:50;6.35;;;3.20;;
73859;SDS011;62197;51.632;13.700;2023-11-19T03:48:15;6.05;;;3.88;;
73859;SDS011;62197;51.632;13.700;2023-11-19T03:50:41;6.55;;;3.70;;
73859;SDS011;62197;51.632;13.700;2023-11-19T03:53:06;7.80;;;4.35;;
73859;SDS011;62197;51.632;13.700;2023-11-19T03:55:32;6.18;;;3.25;;
73859;SDS011;62197;51.632;13.700;2023-11-19T03:57:57;8.25;;;3.70;;
73859;SDS011;62197;51.632;13.700;2023-11-19T04:00:23;6.50;;;3.08;;
73859;SDS011;62197;51.632;13.700;2023-11-19T04:02:48;6.55;;;3.17;;
73859;SDS011;62197;51.632;13.700;2023-11-19T04:05:13;7.30;;;3.78;;
73859;SDS011;62197;51.632;13.700;2023-11-19T04:07:39;5.38;;;3.22;;
73859;SDS011;62197;51.632;13.700;2023-11-19T04:10:04;6.50;;;2.72;;
73859;SDS011;62197;51.632;13.700;2023-11-19T04:12:30;8.05;;;3.78;;
73859;SDS011;62197;51.632;13.700;2023-11-19T04:14:55;7.80;;;3.22;;
73859;SDS011;62197;51.632;13.700;2023-11-19T04:17:21;6.43;;;3.38;;
73859;SDS011;62197;51.632;13.700;2023-11-19T04:19:47;5.38;;;3.00;;
73859;SDS011;62197;51.632;13.700;2023-11-19T04:22:13;5.72;;;3.25;;
73859;SDS011;62197;51.632;13.700;2023-11-19T04:24:38;5.28;;;2.78;;
73859;SDS011;62197;51.632;13.700;2023-11-19T04:27:04;4.68;;;3.28;;
73859;SDS011;62197;51.632;13.700;2023-11-19T04:29:31;6.78;;;3.55;;
73859;SDS011;62197;51.632;13.700;2023-11-19T04:31:56;5.47;;;3.05;;
73859;SDS011;62197;51.632;13.700;2023-11-19T04:34:22;6.25;;;3.40;;
73859;SDS011;62197;51.632;13.700;2023-11-19T04:36:47;4.30;;;2.78;;
73859;SDS011;62197;51.632;13.700;2023-11-19T04:39:12;4.93;;;3.25;;
73859;SDS011;62197;51.632;13.700;2023-11-19T04:41:46;4.55;;;2.90;;
73859;SDS011;62197;51.632;13.700;2023-11-19T04:44:17;4.13;;;2.60;;
73859;SDS011;62197;51.632;13.700;2023-11-19T04:46:42;5.38;;;3.25;;
73859;SDS011;62197;51.632;13.700;2023-11-19T04:49:09;5.07;;;3.03;;
73859;SDS011;62197;51.632;13.700;2023-11-19T04:51:42;7.13;;;3.53;;
73859;SDS011;62197;51.632;13.700;2023-11-19T04:54:09;6.38;;;3.47;;
73859;SDS011;62197;51.632;13.700;2023-11-19T04:56:35;7.00;;;3.08;;
73859;SDS011;62197;51.632;13.700;2023-11-19T04:59:02;5.45;;;2.75;;
73859;SDS011;62197;51.632;13.700;2023-11-19T05:01:28;5.20;;;3.03;;
73859;SDS011;62197;51.632;13.700;2023-11-19T05:03:53;4.90;;;2.90;;
73859;SDS011;62197;51.632;13.700;2023-11-19T05:06:18;8.15;;;2.70;;
73859;SDS011;62197;51.632;13.700;2023-11-19T05:08:44;5.45;;;2.90;;
73859;SDS011;62197;51.632;13.700;2023-11-19T05:11:09;5.15;;;2.20;;
73859;SDS011;62197;51.632;13.700;2023-11-19T05:13:37;4.13;;;2.22;;
73859;SDS011;62197;51.632;13.700;2023-11-19T05:16:02;9.05;;;3.47;;
73859;SDS011;62197;51.632;13.700;2023-11-19T05:18:27;7.30;;;3.33;;
73859;SDS011;62197;51.632;13.700;2023-11-19T05:20:53;5.18;;;2.60;;
73859;SDS011;62197;51.632;13.700;2023-11-19T05:23:18;4.68;;;2.88;;
73859;SDS011;62197;51.632;13.700;2023-11-19T05:25:43;5.38;;;2.95;;
73859;SDS011;62197;51.632;13.700;2023-11-19T05:28:10;6.10;;;2.67;;
73859;SDS011;62197;51.632;13.700;2023-11-19T05:30:36;5.40;;;3.10;;
73859;SDS011;62197;51.632;13.700;2023-11-19T05:33:01;5.55;;;3.00;;
73859;SDS011;62197;51.632;13.700;2023-11-19T05:35:26;4.60;;;2.90;;
73859;SDS011;62197;51.632;13.700;2023-11-19T05:37:52;2.70;;;1.95;;
73859;SDS011;62197;51.632;13.700;2023-11-19T05:40:17;4.45;;;2.65;;
73859;SDS011;62197;51.632;13.700;2023-11-19T05:42:43;7.78;;;3.47;;
73859;SDS011;62197;51.632;13.700;2023-11-19T05:45:10;4.60;;;2.70;;
73859;SDS011;62197;51.632;13.700;2023-11-19T05:47:36;3.75;;;2.25;;
73859;SDS011;62197;51.632;13.700;2023-11-19T05:50:02;5.35;;;3.00;;
73859;SDS011;62197;51.632;13.700;2023-11-19T05:52:28;6.60;;;3.65;;
73859;SDS011;62197;51.632;13.700;2023-11-19T05:54:58;7.13;;;3.22;;
73859;SDS011;62197;51.632;13.700;2023-11-19T05:57:23;5.10;;;3.20;;
73859;SDS011;62197;51.632;13.700;2023-11-19T05:59:50;6.13;;;3.00;;
73859;SDS011;62197;51.632;13.700;2023-11-19T06:02:15;6.90;;;4.10;;
73859;SDS011;62197;51.632;13.700;2023-11-19T06:04:41;6.25;;;3.30;;
73859;SDS011;62197;51.632;13.700;2023-11-19T06:07:09;5.30;;;3.13;;
73859;SDS011;62197;51.632;13.700;2023-11-19T06:09:34;7.63;;;4.38;;
73859;SDS011;62197;51.632;13.700;2023-11-19T06:11:59;7.45;;;3.45;;
73859;SDS011;62197;51.632;13.700;2023-11-19T06:14:27;5.50;;;3.03;;
73859;SDS011;62197;51.632;13.700;2023-11-19T06:16:52;7.43;;;3.60;;
73859;SDS011;62197;51.632;13.700;2023-11-19T06:19:18;6.20;;;3.13;;
73859;SDS011;62197;51.632;13.700;2023-11-19T06:21:43;8.32;;;3.88;;
73859;SDS011;62197;51.632;13.700;2023-11-19T06:24:08;9.80;;;4.97;;
73859;SDS011;62197;51.632;13.700;2023-11-19T06:26:34;9.70;;;4.15;;
73859;SDS011;62197;51.632;13.700;2023-11-19T06:28:59;8.32;;;4.93;;
73859;SDS011;62197;51.632;13.700;2023-11-19T06:31:25;8.63;;;4.18;;
73859;SDS011;62197;51.632;13.700;2023-11-19T06:33:50;9.18;;;3.97;;
73859;SDS011;62197;51.632;13.700;2023-11-19T06:36:15;8.25;;;4.28;;
73859;SDS011;62197;51.632;13.700;2023-11-19T06:38:43;8.70;;;4.20;;
73859;SDS011;62197;51.632;13.700;2023-11-19T06:41:09;7.45;;;3.78;;
73859;SDS011;62197;51.632;13.700;2023-11-19T06:43:34;8.32;;;4.40;;
73859;SDS011;62197;51.632;13.700;2023-11-19T06:46:01;9.52;;;4.40;;
73859;SDS011;62197;51.632;13.700;2023-11-19T06:48:27;7.40;;;3.75;;
73859;SDS011;62197;51.632;13.700;2023-11-19T06:50:52;6.38;;;3.67;;
73859;SDS011;62197;51.632;13.700;2023-11-19T06:53:17;10.98;;;4.68;;
73859;SDS011;62197;51.632;13.700;2023-11-19T06:55:42;10.40;;;4.97;;
73859;SDS011;62197;51.632;13.700;2023-11-19T06:58:08;6.80;;;3.45;;
73859;SDS011;62197;51.632;13.700;2023-11-19T07:00:33;8.55;;;5.05;;
73859;SDS011;62197;51.632;13.700;2023-11-19T07:03:00;8.13;;;4.30;;
73859;SDS011;62197;51.632;13.700;2023-11-19T07:05:26;8.07;;;3.50;;
73859;SDS011;62197;51.632;13.700;2023-11-19T07:07:51;9.68;;;3.75;;
73859;SDS011;62197;51.632;13.700;2023-11-19T07:10:16;7.35;;;4.53;;
73859;SDS011;62197;51.632;13.700;2023-11-19T07:12:42;8.07;;;4.05;;
73859;SDS011;62197;51.632;13.700;2023-11-19T07:15:07;6.88;;;3.30;;
73859;SDS011;62197;51.632;13.700;2023-11-19T07:17:33;8.25;;;3.97;;
73859;SDS011;62197;51.632;13.700;2023-11-19T07:22:25;5.93;;;3.20;;
73859;SDS011;62197;51.632;13.700;2023-11-19T07:24:51;7.97;;;3.80;;
73859;SDS011;62197;51.632;13.700;2023-11-19T07:27:18;6.55;;;3.83;;
73859;SDS011;62197;51.632;13.700;2023-11-19T07:29:43;7.13;;;3.83;;
73859;SDS011;62197;51.632;13.700;2023-11-19T07:32:09;6.80;;;3.65;;
73859;SDS011;62197;51.632;13.700;2023-11-19T07:34:35;7.25;;;3.47;;
73859;SDS011;62197;51.632;13.700;2023-11-19T07:37:00;4.50;;;2.42;;
73859;SDS011;62197;51.632;13.700;2023-11-19T07:39:27;7.40;;;3.85;;
73859;SDS011;62197;51.632;13.700;2023-11-19T07:41:53;7.97;;;3.85;;
73859;SDS011;62197;51.632;13.700;2023-11-19T07:44:19;6.53;;;3.88;;
73859;SDS011;62197;51.632;13.700;2023-11-19T07:46:46;8.55;;;4.00;;
73859;SDS011;62197;51.632;13.700;2023-11-19T07:49:12;5.63;;;2.95;;
73859;SDS011;62197;51.632;13.700;2023-11-19T07:51:38;6.40;;;3.70;;
73859;SDS011;62197;51.632;13.700;2023-11-19T07:54:04;8.25;;;4.22;;
73859;SDS011;62197;51.632;13.700;2023-11-19T07:56:29;7.43;;;3.92;;
73859;SDS011;62197;51.632;13.700;2023-11-19T07:58:54;7.82;;;3.47;;
73859;SDS011;62197;51.632;13.700;2023-11-19T08:01:20;7.03;;;3.22;;
73859;SDS011;62197;51.632;13.700;2023-11-19T08:03:45;5.95;;;3.30;;
73859;SDS011;62197;51.632;13.700;2023-11-19T08:06:10;7.38;;;3.40;;
73859;SDS011;62197;51.632;13.700;2023-11-19T08:08:36;6.90;;;3.65;;
73859;SDS011;62197;51.632;13.700;2023-11-19T08:11:03;8.25;;;3.88;;
73859;SDS011;62197;51.632;13.700;2023-11-19T08:13:30;7.68;;;3.85;;
73859;SDS011;62197;51.632;13.700;2023-11-19T08:15:56;6.38;;;3.42;;
73859;SDS011;62197;51.632;13.700;2023-11-19T08:18:23;6.45;;;3.17;;
73859;SDS011;62197;51.632;13.700;2023-11-19T08:20:49;7.68;;;3.78;;
73859;SDS011;62197;51.632;13.700;2023-11-19T08:23:17;6.82;;;3.10;;
73859;SDS011;62197;51.632;13.700;2023-11-19T08:25:43;8.38;;;3.55;;
73859;SDS011;62197;51.632;13.700;2023-11-19T08:28:09;6.18;;;3.40;;
73859;SDS011;62197;51.632;13.700;2023-11-19T08:30:34;5.28;;;2.85;;
73859;SDS011;62197;51.632;13.700;2023-11-19T08:33:00;4.40;;;2.25;;
73859;SDS011;62197;51.632;13.700;2023-11-19T08:35:27;5.85;;;2.42;;
73859;SDS011;62197;51.632;13.700;2023-11-19T08:37:53;3.92;;;1.88;;
73859;SDS011;62197;51.632;13.700;2023-11-19T08:40:19;2.97;;;1.70;;
73859;SDS011;62197;51.632;13.700;2023-11-19T08:42:45;2.95;;;1.65;;
73859;SDS011;62197;51.632;13.700;2023-11-19T08:45:10;4.18;;;1.98;;
73859;SDS011;62197;51.632;13.700;2023-11-19T08:47:36;2.50;;;1.15;;
73859;SDS011;62197;51.632;13.700;2023-11-19T08:52:29;2.58;;;0.90;;
73859;SDS011;62197;51.632;13.700;2023-11-19T08:54:54;2.75;;;1.00;;
73859;SDS011;62197;51.632;13.700;2023-11-19T08:57:19;1.67;;;0.88;;
73859;SDS011;62197;51.632;13.700;2023-11-19T08:59:45;2.30;;;0.82;;
73859;SDS011;62197;51.632;13.700;2023-11-19T09:02:11;2.05;;;1.13;;
73859;SDS011;62197;51.632;13.700;2023-11-19T09:04:36;1.73;;;0.70;;
73859;SDS011;62197;51.632;13.700;2023-11-19T09:07:02;0.98;;;0.57;;
73859;SDS011;62197;51.632;13.700;2023-11-19T09:09:28;1.58;;;0.40;;
73859;SDS011;62197;51.632;13.700;2023-11-19T09:11:53;0.38;;;0.20;;
73859;SDS011;62197;51.632;13.700;2023-11-19T09:14:19;0.70;;;0.20;;
73859;SDS011;62197;51.632;13.700;2023-11-19T09:16:49;1.38;;;0.40;;
73859;SDS011;62197;51.632;13.700;2023-11-19T09:21:39;1.43;;;0.37;;
73859;SDS011;62197;51.632;13.700;2023-11-19T09:24:05;2.05;;;0.50;;
73859;SDS011;62197;51.632;13.700;2023-11-19T09:26:32;1.42;;;0.22;;
73859;SDS011;62197;51.632;13.700;2023-11-19T09:31:22;1.90;;;0.40;;
73859;SDS011;62197;51.632;13.700;2023-11-19T09:36:13;2.20;;;0.50;;
73859;SDS011;62197;51.632;13.700;2023-11-19T09:38:41;3.13;;;0.50;;
73859;SDS011;62197;51.632;13.700;2023-11-19T09:41:10;1.17;;;0.45;;
73859;SDS011;62197;51.632;13.700;2023-11-19T09:43:38;0.50;;;0.30;;
73859;SDS011;62197;51.632;13.700;2023-11-19T09:46:05;0.98;;;0.32;;
73859;SDS011;62197;51.632;13.700;2023-11-19T09:48:36;0.63;;;0.30;;
73859;SDS011;62197;51.632;13.700;2023-11-19T09:51:02;0.50;;;0.20;;
73859;SDS011;62197;51.632;13.700;2023-11-19T09:53:36;1.27;;;0.20;;
73859;SDS011;62197;51.632;13.700;2023-11-19T09:58:31;1.08;;;0.32;;
73859;SDS011;62197;51.632;13.700;2023-11-19T10:00:58;2.20;;;0.30;;
73859;SDS011;62197;51.632;13.700;2023-11-19T10:03:24;2.22;;;0.50;;
73859;SDS011;62197;51.632;13.700;2023-11-19T10:05:57;3.25;;;0.30;;
73859;SDS011;62197;51.632;13.700;2023-11-19T10:10:48;1.10;;;0.20;;
73859;SDS011;62197;51.632;13.700;2023-11-19T10:15:39;0.22;;;0.22;;
73859;SDS011;62197;51.632;13.700;2023-11-19T10:20:36;1.33;;;0.40;;
73859;SDS011;62197;51.632;13.700;2023-11-19T10:23:02;1.92;;;0.52;;
73859;SDS011;62197;51.632;13.700;2023-11-19T10:27:54;6.20;;;0.70;;
73859;SDS011;62197;51.632;13.700;2023-11-19T10:30:23;2.85;;;0.60;;
73859;SDS011;62197;51.632;13.700;2023-11-19T10:33:06;3.20;;;0.55;;
73859;SDS011;62197;51.632;13.700;2023-11-19T10:35:32;1.60;;;0.40;;
73859;SDS011;62197;51.632;13.700;2023-11-19T10:38:13;2.92;;;0.80;;
73859;SDS011;62197;51.632;13.700;2023-11-19T10:40:40;1.85;;;0.45;;
73859;SDS011;62197;51.632;13.700;2023-11-19T10:45:32;5.63;;;0.82;;
73859;SDS011;62197;51.632;13.700;2023-11-19T10:47:58;6.28;;;0.60;;
73859;SDS011;62197;51.632;13.700;2023-11-19T10:50:24;4.57;;;0.60;;
73859;SDS011;62197;51.632;13.700;2023-11-19T10:55:17;0.43;;;0.35;;
73859;SDS011;62197;51.632;13.700;2023-11-19T10:57:47;6.03;;;1.05;;
73859;SDS011;62197;51.632;13.700;2023-11-19T11:00:14;1.73;;;0.60;;
73859;SDS011;62197;51.632;13.700;2023-11-19T11:02:45;3.85;;;0.50;;
73859;SDS011;62197;51.632;13.700;2023-11-19T11:05:14;2.83;;;0.52;;
73859;SDS011;62197;51.632;13.700;2023-11-19T11:07:41;1.55;;;0.88;;
73859;SDS011;62197;51.632;13.700;2023-11-19T11:10:09;3.70;;;0.40;;
73859;SDS011;62197;51.632;13.700;2023-11-19T11:12:36;0.55;;;0.30;;
73859;SDS011;62197;51.632;13.700;2023-11-19T11:15:06;5.43;;;0.77;;
73859;SDS011;62197;51.632;13.700;2023-11-19T11:17:33;1.90;;;0.45;;
73859;SDS011;62197;51.632;13.700;2023-11-19T11:19:59;1.10;;;0.63;;
73859;SDS011;62197;51.632;13.700;2023-11-19T11:22:24;4.13;;;0.90;;
73859;SDS011;62197;51.632;13.700;2023-11-19T11:24:59;5.70;;;1.13;;
73859;SDS011;62197;51.632;13.700;2023-11-19T11:27:59;2.83;;;0.90;;
73859;SDS011;62197;51.632;13.700;2023-11-19T11:30:44;2.55;;;0.63;;
73859;SDS011;62197;51.632;13.700;2023-11-19T11:33:40;3.78;;;0.80;;
73859;SDS011;62197;51.632;13.700;2023-11-19T11:36:20;3.40;;;1.10;;
73859;SDS011;62197;51.632;13.700;2023-11-19T11:38:50;4.28;;;1.50;;
73859;SDS011;62197;51.632;13.700;2023-11-19T11:41:16;1.90;;;0.28;;
73859;SDS011;62197;51.632;13.700;2023-11-19T11:49:05;5.80;;;1.30;;
73859;SDS011;62197;51.632;13.700;2023-11-19T11:54:09;1.63;;;0.60;;
73859;SDS011;62197;51.632;13.700;2023-11-19T11:56:38;3.95;;;0.70;;
73859;SDS011;62197;51.632;13.700;2023-11-19T11:59:19;4.43;;;0.80;;
73859;SDS011;62197;51.632;13.700;2023-11-19T12:01:59;2.28;;;1.10;;
73859;SDS011;62197;51.632;13.700;2023-11-19T12:04:28;2.78;;;0.85;;
73859;SDS011;62197;51.632;13.700;2023-11-19T12:10:07;2.72;;;0.50;;
73859;SDS011;62197;51.632;13.700;2023-11-19T12:12:36;3.75;;;1.17;;
73859;SDS011;62197;51.632;13.700;2023-11-19T12:20:07;4.10;;;0.88;;
73859;SDS011;62197;51.632;13.700;2023-11-19T12:22:37;5.10;;;0.95;;
73859;SDS011;62197;51.632;13.700;2023-11-19T12:25:04;4.43;;;0.95;;
73859;SDS011;62197;51.632;13.700;2023-11-19T12:27:31;4.97;;;0.90;;
73859;SDS011;62197;51.632;13.700;2023-11-19T12:29:58;5.25;;;0.90;;
73859;SDS011;62197;51.632;13.700;2023-11-19T12:32:24;4.82;;;1.08;;
73859;SDS011;62197;51.632;13.700;2023-11-19T12:34:49;6.07;;;1.20;;
73859;SDS011;62197;51.632;13.700;2023-11-19T12:37:15;5.97;;;1.42;;
73859;SDS011;62197;51.632;13.700;2023-11-19T12:39:40;3.72;;;1.25;;
73859;SDS011;62197;51.632;13.700;2023-11-19T12:42:06;4.05;;;0.93;;
73859;SDS011;62197;51.632;13.700;2023-11-19T12:44:31;3.92;;;0.90;;
73859;SDS011;62197;51.632;13.700;2023-11-19T12:49:29;5.38;;;0.80;;
73859;SDS011;62197;51.632;13.700;2023-11-19T12:51:54;2.83;;;0.90;;
73859;SDS011;62197;51.632;13.700;2023-11-19T12:54:20;4.05;;;0.85;;
73859;SDS011;62197;51.632;13.700;2023-11-19T12:56:52;1.95;;;0.70;;
73859;SDS011;62197;51.632;13.700;2023-11-19T12:59:17;4.28;;;0.50;;
73859;SDS011;62197;51.632;13.700;2023-11-19T13:01:53;3.78;;;1.02;;
73859;SDS011;62197;51.632;13.700;2023-11-19T13:04:19;3.50;;;1.02;;
73859;SDS011;62197;51.632;13.700;2023-11-19T13:06:48;6.03;;;1.05;;
73859;SDS011;62197;51.632;13.700;2023-11-19T13:11:51;3.63;;;0.98;;
73859;SDS011;62197;51.632;13.700;2023-11-19T13:14:17;4.18;;;0.90;;
73859;SDS011;62197;51.632;13.700;2023-11-19T13:16:43;2.58;;;0.80;;
73859;SDS011;62197;51.632;13.700;2023-11-19T13:19:10;3.50;;;0.77;;
73859;SDS011;62197;51.632;13.700;2023-11-19T13:21:36;5.10;;;1.00;;
73859;SDS011;62197;51.632;13.700;2023-11-19T13:24:02;3.28;;;1.00;;
73859;SDS011;62197;51.632;13.700;2023-11-19T13:26:27;4.82;;;1.05;;
73859;SDS011;62197;51.632;13.700;2023-11-19T13:28:52;3.05;;;0.88;;
73859;SDS011;62197;51.632;13.700;2023-11-19T13:31:18;3.90;;;0.93;;
73859;SDS011;62197;51.632;13.700;2023-11-19T13:33:43;3.88;;;1.10;;
73859;SDS011;62197;51.632;13.700;2023-11-19T13:36:08;3.67;;;1.10;;
73859;SDS011;62197;51.632;13.700;2023-11-19T13:38:34;2.45;;;0.80;;
73859;SDS011;62197;51.632;13.700;2023-11-19T13:41:01;3.88;;;1.50;;
73859;SDS011;62197;51.632;13.700;2023-11-19T13:43:29;5.50;;;1.13;;
73859;SDS011;62197;51.632;13.700;2023-11-19T13:45:55;6.75;;;1.23;;
73859;SDS011;62197;51.632;13.700;2023-11-19T13:48:21;6.43;;;1.38;;
73859;SDS011;62197;51.632;13.700;2023-11-19T13:50:47;4.15;;;1.90;;
73859;SDS011;62197;51.632;13.700;2023-11-19T13:53:12;3.75;;;1.27;;
73859;SDS011;62197;51.632;13.700;2023-11-19T13:55:38;7.22;;;1.42;;
73859;SDS011;62197;51.632;13.700;2023-11-19T13:58:03;3.80;;;1.30;;
73859;SDS011;62197;51.632;13.700;2023-11-19T14:02:54;7.17;;;1.33;;
73859;SDS011;62197;51.632;13.700;2023-11-19T14:07:45;10.03;;;1.90;;
73859;SDS011;62197;51.632;13.700;2023-11-19T14:10:13;6.47;;;1.15;;
73859;SDS011;62197;51.632;13.700;2023-11-19T14:12:39;6.38;;;1.30;;
73859;SDS011;62197;51.632;13.700;2023-11-19T14:17:40;5.03;;;1.40;;
73859;SDS011;62197;51.632;13.700;2023-11-19T14:22:44;5.47;;;1.40;;
73859;SDS011;62197;51.632;13.700;2023-11-19T14:25:12;8.82;;;1.40;;
73859;SDS011;62197;51.632;13.700;2023-11-19T14:27:38;10.45;;;1.55;;
73859;SDS011;62197;51.632;13.700;2023-11-19T14:30:08;6.95;;;1.33;;
73859;SDS011;62197;51.632;13.700;2023-11-19T14:32:36;6.45;;;1.92;;
73859;SDS011;62197;51.632;13.700;2023-11-19T14:35:02;5.13;;;1.38;;
73859;SDS011;62197;51.632;13.700;2023-11-19T14:37:28;7.10;;;1.15;;
73859;SDS011;62197;51.632;13.700;2023-11-19T14:39:55;7.82;;;2.05;;
73859;SDS011;62197;51.632;13.700;2023-11-19T14:42:20;6.72;;;1.27;;
73859;SDS011;62197;51.632;13.700;2023-11-19T14:47:11;9.03;;;1.73;;
73859;SDS011;62197;51.632;13.700;2023-11-19T14:49:36;11.68;;;2.05;;
73859;SDS011;62197;51.632;13.700;2023-11-19T14:52:04;11.88;;;1.33;;
73859;SDS011;62197;51.632;13.700;2023-11-19T14:54:29;8.60;;;2.03;;
73859;SDS011;62197;51.632;13.700;2023-11-19T14:56:55;4.47;;;1.63;;
73859;SDS011;62197;51.632;13.700;2023-11-19T15:01:46;4.87;;;1.40;;
73859;SDS011;62197;51.632;13.700;2023-11-19T15:04:12;9.63;;;1.70;;
73859;SDS011;62197;51.632;13.700;2023-11-19T15:06:37;4.03;;;1.52;;
73859;SDS011;62197;51.632;13.700;2023-11-19T15:11:28;7.38;;;1.55;;
73859;SDS011;62197;51.632;13.700;2023-11-19T15:13:54;4.95;;;1.17;;
73859;SDS011;62197;51.632;13.700;2023-11-19T15:16:19;11.70;;;2.40;;
73859;SDS011;62197;51.632;13.700;2023-11-19T15:18:50;10.82;;;1.73;;
73859;SDS011;62197;51.632;13.700;2023-11-19T15:21:16;7.68;;;1.75;;
73859;SDS011;62197;51.632;13.700;2023-11-19T15:23:42;12.73;;;1.63;;
73859;SDS011;62197;51.632;13.700;2023-11-19T15:26:08;5.03;;;1.45;;
73859;SDS011;62197;51.632;13.700;2023-11-19T15:28:35;6.50;;;1.65;;
73859;SDS011;62197;51.632;13.700;2023-11-19T15:31:01;6.07;;;1.15;;
73859;SDS011;62197;51.632;13.700;2023-11-19T15:33:27;6.32;;;1.52;;
73859;SDS011;62197;51.632;13.700;2023-11-19T15:35:53;10.88;;;1.40;;
73859;SDS011;62197;51.632;13.700;2023-11-19T15:40:44;9.53;;;1.47;;
73859;SDS011;62197;51.632;13.700;2023-11-19T15:45:34;10.60;;;1.60;;
73859;SDS011;62197;51.632;13.700;2023-11-19T15:48:02;8.35;;;1.75;;
73859;SDS011;62197;51.632;13.700;2023-11-19T15:52:54;6.25;;;1.13;;